GCXO

Tenerife Norte Airport

Tenerife Island, Spain
METAR GCXO 190930Z 30013KT CAVOK 20/07 Q1019 NOSIG
Observed Flight Rules
Apr-19 @ 09:30 UTC (22 minutes ago) Visual Flight Rules
Wind Visibility Clouds
300° at 13 knots 10,000+ meters
  • Clear skies
Temperatures Readings
Current 20°C / 68°F
Dewpoint 7°C / 45°F
Humidity 43%
Altimeter 30.09" Hg
Pressure 1019 hPa
Elevation 632
METAR GCXO 190930Z 30013KT CAVOK 20/07 Q1019 NOSIG
Observed Flight Rules
Apr-19 @ 09:30 UTC
(22 minutes ago)
VFR
Wind Visibility
300° at 13 knots 10,000+ meters
Clouds
  • Clear skies
Temperature Dewpoint
20°C / 68°F 7°C / 45°F
Humidity Altimeter Pressure
43% 30.09" Hg 1019 hPa